Time;durP1;ratioP1;P1;durP2;ratioP2;P2;SDS_P1;SDS_P2;PMS_P1;PMS_P2;Temp;Humidity;BMP_temperature;BMP_pressure;BME280_temperature;BME280_humidity;BME280_pressure;Samples;Min_cycle;Max_cycle;Signal;HPM_P1;HPM_P2
2021/04/23 00:00:39;;;;;;;6.93;2.67;;;7.90;99.90;;;;;;5034224;28;20233;-52
2021/04/23 00:03:29;;;;;;;7.20;2.47;;;8.00;99.90;;;;;;5035840;28;20239;-52
2021/04/23 00:06:21;;;;;;;4.90;2.37;;;8.00;99.90;;;;;;5033925;28;20280;-53
2021/04/23 00:08:53;;;;;;;8.03;2.60;;;8.10;99.90;;;;;;5031800;28;20311;-53
2021/04/23 00:11:23;;;;;;;7.10;2.80;;;8.00;99.90;;;;;;5035114;28;20206;-52
2021/04/23 00:13:49;;;;;;;5.20;2.90;;;8.10;99.90;;;;;;5037866;28;20231;-52
2021/04/23 00:16:16;;;;;;;6.83;3.17;;;8.10;99.90;;;;;;5038387;28;20228;-52
2021/04/23 00:18:42;;;;;;;9.40;2.80;;;8.00;99.90;;;;;;5037752;28;20220;-52
2021/04/23 00:21:11;;;;;;;11.73;3.77;;;8.00;99.90;;;;;;5034081;28;20246;-52
2021/04/23 00:23:39;;;;;;;6.87;3.10;;;8.10;99.90;;;;;;5035720;28;20296;-52
2021/04/23 00:26:07;;;;;;;7.80;3.00;;;8.00;99.90;;;;;;5033759;28;20289;-52
2021/04/23 00:28:35;;;;;;;8.73;2.97;;;8.00;99.90;;;;;;5038114;28;20243;-53
2021/04/23 00:31:03;;;;;;;5.77;3.30;;;8.00;99.90;;;;;;5034000;28;20210;-52
2021/04/23 00:33:30;;;;;;;5.30;2.83;;;8.00;99.90;;;;;;5034819;28;20223;-53
2021/04/23 00:35:57;;;;;;;8.57;2.67;;;7.90;99.90;;;;;;5032501;28;20205;-52
2021/04/23 00:38:26;;;;;;;8.53;2.77;;;7.90;99.90;;;;;;5032099;28;20307;-52
2021/04/23 00:41:02;;;;;;;4.47;2.60;;;8.00;99.90;;;;;;5036972;28;20232;-52
2021/04/23 00:43:32;;;;;;;8.03;2.90;;;8.00;99.90;;;;;;5034800;28;20236;-52
2021/04/23 00:45:59;;;;;;;6.97;3.23;;;7.90;99.90;;;;;;5035145;28;20314;-52
2021/04/23 00:48:26;;;;;;;10.93;3.00;;;7.90;99.90;;;;;;5034854;28;20227;-52
2021/04/23 00:50:56;;;;;;;8.30;2.90;;;7.90;99.90;;;;;;5031588;28;20230;-53
2021/04/23 00:53:28;;;;;;;6.20;2.50;;;7.90;99.90;;;;;;5032292;28;20248;-52
2021/04/23 00:55:58;;;;;;;6.13;2.90;;;7.90;99.90;;;;;;5035116;28;20195;-52
2021/04/23 00:58:27;;;;;;;5.97;3.00;;;7.90;99.90;;;;;;5036464;28;20630;-53
2021/04/23 01:00:57;;;;;;;6.67;3.00;;;7.90;99.90;;;;;;5033999;28;20197;-53
2021/04/23 01:03:25;;;;;;;8.73;3.43;;;7.80;99.90;;;;;;5036020;28;20196;-52
2021/04/23 01:05:54;;;;;;;7.53;3.10;;;7.90;99.90;;;;;;5034326;28;20392;-52
2021/04/23 01:08:26;;;;;;;4.23;2.60;;;7.90;99.90;;;;;;5035098;28;20245;-52
2021/04/23 01:10:59;;;;;;;11.33;3.17;;;7.80;99.90;;;;;;5032406;28;22043;-53
2021/04/23 01:13:30;;;;;;;8.93;3.27;;;7.80;99.90;;;;;;5036182;28;20197;-52
2021/04/23 01:16:18;;;;;;;6.43;3.17;;;7.70;99.90;;;;;;5029276;28;20287;-52
2021/04/23 01:18:46;;;;;;;6.27;3.00;;;7.60;99.90;;;;;;5036025;28;20283;-52
2021/04/23 01:21:17;;;;;;;11.27;3.33;;;7.70;99.90;;;;;;5029673;28;20200;-52
2021/04/23 01:23:46;;;;;;;6.20;3.20;;;7.60;99.90;;;;;;5035006;28;21652;-52
2021/04/23 01:26:17;;;;;;;10.20;3.40;;;7.60;99.90;;;;;;5034229;28;20271;-52
2021/04/23 01:28:45;;;;;;;9.53;3.73;;;7.60;99.90;;;;;;5036535;28;20286;-52
2021/04/23 01:31:15;;;;;;;10.70;3.63;;;7.60;99.90;;;;;;5032756;28;20493;-52
2021/04/23 01:33:45;;;;;;;7.17;3.23;;;7.50;99.90;;;;;;5031636;28;20240;-52
2021/04/23 01:36:12;;;;;;;13.10;3.93;;;7.60;99.90;;;;;;5038963;28;20209;-52
2021/04/23 01:38:41;;;;;;;5.57;3.40;;;7.60;99.90;;;;;;5038953;28;20199;-52
2021/04/23 01:41:08;;;;;;;7.20;3.10;;;7.50;99.90;;;;;;5037969;28;20693;-53
2021/04/23 01:43:36;;;;;;;7.53;3.43;;;7.50;99.90;;;;;;5040040;28;20243;-52
2021/04/23 01:46:06;;;;;;;7.53;3.47;;;7.50;99.90;;;;;;5032380;28;20271;-52
2021/04/23 01:48:33;;;;;;;5.93;2.90;;;7.40;99.90;;;;;;5040326;28;20266;-52
2021/04/23 01:51:03;;;;;;;7.17;3.10;;;7.60;99.90;;;;;;5034979;28;20235;-52
2021/04/23 01:53:30;;;;;;;6.40;3.93;;;7.60;99.90;;;;;;5034924;28;20202;-52
2021/04/23 01:55:56;;;;;;;8.63;3.27;;;7.60;99.90;;;;;;5040926;28;20205;-52
2021/04/23 01:58:23;;;;;;;6.47;3.60;;;7.50;99.90;;;;;;5035053;28;20283;-53
2021/04/23 02:00:51;;;;;;;6.73;3.40;;;7.50;99.90;;;;;;5036027;28;20261;-52
2021/04/23 02:03:18;;;;;;;15.17;4.10;;;7.40;99.90;;;;;;5037405;28;20203;-52
2021/04/23 02:05:47;;;;;;;10.53;3.53;;;7.50;99.90;;;;;;5036407;28;20294;-52
2021/04/23 02:08:16;;;;;;;11.67;4.80;;;7.40;99.90;;;;;;5038421;28;20294;-52
2021/04/23 02:10:47;;;;;;;8.17;3.00;;;7.30;99.90;;;;;;5039842;28;20377;-52
2021/04/23 02:13:15;;;;;;;9.07;3.93;;;7.20;99.90;;;;;;5037199;28;20920;-52
2021/04/23 02:15:41;;;;;;;8.13;3.77;;;7.30;99.90;;;;;;5036871;28;20194;-52
2021/04/23 02:18:07;;;;;;;7.50;4.10;;;7.20;99.90;;;;;;5036677;28;20214;-52
2021/04/23 02:20:36;;;;;;;9.60;3.37;;;7.20;99.90;;;;;;5040704;28;20278;-53
2021/04/23 02:23:10;;;;;;;6.23;3.57;;;7.20;99.90;;;;;;5033669;28;20196;-52
2021/04/23 02:25:37;;;;;;;8.60;3.60;;;7.30;99.90;;;;;;5038945;28;20227;-52
2021/04/23 02:28:05;;;;;;;7.53;3.87;;;7.30;99.90;;;;;;5039666;28;20220;-52
2021/04/23 02:30:35;;;;;;;7.10;4.13;;;7.30;99.90;;;;;;5033284;28;20323;-52
2021/04/23 02:33:03;;;;;;;6.40;3.60;;;7.30;99.90;;;;;;5035943;28;20237;-52
2021/04/23 02:35:30;;;;;;;9.73;4.10;;;7.20;99.90;;;;;;5036140;28;20621;-52
2021/04/23 02:37:57;;;;;;;6.43;4.23;;;7.20;99.90;;;;;;5036321;28;20282;-52
2021/04/23 02:40:27;;;;;;;8.83;3.87;;;7.20;99.90;;;;;;5037620;28;20211;-52
2021/04/23 02:43:00;;;;;;;8.33;4.33;;;7.20;99.90;;;;;;5035509;28;20644;-52
2021/04/23 02:45:30;;;;;;;10.23;4.13;;;7.20;99.90;;;;;;5034499;28;20251;-53
2021/04/23 02:47:57;;;;;;;12.37;4.50;;;7.20;99.90;;;;;;5038918;28;20203;-52
2021/04/23 02:50:27;;;;;;;10.03;4.27;;;7.30;99.90;;;;;;5039349;28;20263;-53
2021/04/23 02:52:54;;;;;;;8.17;3.43;;;7.00;99.90;;;;;;5037848;28;20202;-52
2021/04/23 02:55:21;;;;;;;5.47;3.97;;;7.00;99.90;;;;;;5029719;28;20685;-52
2021/04/23 02:58:05;;;;;;;5.37;3.87;;;6.70;99.90;;;;;;5036665;28;20194;-52
2021/04/23 03:00:35;;;;;;;6.97;4.00;;;6.40;99.90;;;;;;5035233;28;20282;-52
2021/04/23 03:03:04;;;;;;;7.27;3.97;;;6.30;99.90;;;;;;5030845;28;20653;-52
2021/04/23 03:05:31;;;;;;;7.87;4.13;;;6.30;99.90;;;;;;5037472;28;20239;-52
2021/04/23 03:07:58;;;;;;;7.17;3.77;;;6.20;99.90;;;;;;5033455;28;20253;-52
2021/04/23 03:10:31;;;;;;;4.90;3.57;;;5.90;99.90;;;;;;5033848;28;20213;-52
2021/04/23 03:13:03;;;;;;;9.00;4.80;;;5.40;99.90;;;;;;5035948;28;20260;-52
2021/04/23 03:15:29;;;;;;;10.20;4.70;;;5.50;99.90;;;;;;5036503;28;20240;-52
2021/04/23 03:17:56;;;;;;;7.13;4.30;;;5.80;99.90;;;;;;5035966;28;20201;-52
2021/04/23 03:20:24;;;;;;;7.10;4.30;;;6.20;99.90;;;;;;5036554;28;20202;-52
2021/04/23 03:22:51;;;;;;;8.77;4.03;;;6.30;99.90;;;;;;5036533;28;20209;-52
2021/04/23 03:25:18;;;;;;;7.93;4.63;;;6.30;99.90;;;;;;5036787;28;20236;-52
2021/04/23 03:27:45;;;;;;;8.13;4.53;;;6.30;99.90;;;;;;5036611;28;20594;-52
2021/04/23 03:30:16;;;;;;;8.97;3.70;;;5.90;99.90;;;;;;5034024;28;20257;-52
2021/04/23 03:32:43;;;;;;;9.53;4.60;;;5.60;99.90;;;;;;5035983;28;20192;-52
2021/04/23 03:35:10;;;;;;;9.03;4.73;;;5.80;99.90;;;;;;5034732;28;20264;-52
2021/04/23 03:37:37;;;;;;;6.23;3.73;;;5.90;99.90;;;;;;5035141;28;20297;-52
2021/04/23 03:40:06;;;;;;;10.40;4.80;;;6.00;99.90;;;;;;5036875;28;20291;-52
2021/04/23 03:42:37;;;;;;;8.60;4.73;;;6.00;99.90;;;;;;5033559;28;20315;-52
2021/04/23 03:45:06;;;;;;;7.83;4.23;;;5.90;99.90;;;;;;5036706;28;20201;-52
2021/04/23 03:47:33;;;;;;;7.07;4.30;;;6.00;99.90;;;;;;5032251;28;20676;-52
2021/04/23 03:49:59;;;;;;;9.10;4.67;;;6.00;99.90;;;;;;5034474;28;20267;-52
2021/04/23 03:52:26;;;;;;;6.07;4.17;;;5.80;99.90;;;;;;5033382;28;20201;-52
2021/04/23 03:54:52;;;;;;;9.00;4.97;;;5.80;99.90;;;;;;5034705;28;20280;-52
2021/04/23 03:57:19;;;;;;;7.07;4.40;;;5.80;99.90;;;;;;5032605;28;20196;-52
2021/04/23 03:59:45;;;;;;;7.03;4.00;;;5.90;99.90;;;;;;5033751;28;20566;-52
2021/04/23 04:02:12;;;;;;;8.10;4.00;;;5.90;99.90;;;;;;5034551;28;20641;-52
2021/04/23 04:04:38;;;;;;;7.63;4.30;;;5.90;99.90;;;;;;5038515;28;20549;-52
2021/04/23 04:07:05;;;;;;;8.00;4.13;;;5.80;99.90;;;;;;5032325;28;20243;-52
2021/04/23 04:09:31;;;;;;;8.63;4.27;;;6.00;99.90;;;;;;5034088;28;20770;-52
2021/04/23 04:11:57;;;;;;;8.70;4.00;;;6.00;99.90;;;;;;5034650;28;20292;-52
2021/04/23 04:14:23;;;;;;;10.90;4.90;;;6.00;99.90;;;;;;5033446;28;20621;-52
2021/04/23 04:16:50;;;;;;;7.23;4.33;;;6.00;99.90;;;;;;5030786;28;20242;-52
2021/04/23 04:19:16;;;;;;;7.30;4.40;;;6.10;99.90;;;;;;5033611;28;20593;-52
2021/04/23 04:21:42;;;;;;;5.67;3.83;;;6.10;99.90;;;;;;5032917;28;20330;-52
2021/04/23 04:24:09;;;;;;;10.87;4.57;;;6.00;99.90;;;;;;5033757;28;20671;-52
2021/04/23 04:26:36;;;;;;;9.50;4.90;;;6.10;99.90;;;;;;5035630;28;20526;-53
2021/04/23 04:29:03;;;;;;;6.27;4.77;;;6.10;99.90;;;;;;5032873;28;21009;-52
2021/04/23 04:31:30;;;;;;;8.67;5.23;;;6.00;99.90;;;;;;5033732;28;20728;-52
2021/04/23 04:33:57;;;;;;;7.37;4.90;;;5.90;99.90;;;;;;5034895;28;20296;-52
2021/04/23 04:36:24;;;;;;;9.53;5.60;;;5.90;99.90;;;;;;5033022;28;20680;-52
2021/04/23 04:38:50;;;;;;;8.03;5.63;;;5.90;99.90;;;;;;5033318;28;20275;-52
2021/04/23 04:41:18;;;;;;;14.33;6.50;;;5.80;99.90;;;;;;5035213;28;20821;-52
2021/04/23 04:43:44;;;;;;;8.87;5.77;;;5.80;99.90;;;;;;5034557;28;20212;-52
2021/04/23 04:46:11;;;;;;;9.30;5.70;;;5.80;99.90;;;;;;5026983;28;20223;-52
2021/04/23 04:48:38;;;;;;;7.63;5.17;;;5.90;99.90;;;;;;5032275;28;20572;-53
2021/04/23 04:51:05;;;;;;;12.83;5.57;;;6.00;99.90;;;;;;5034650;28;20199;-53
2021/04/23 04:53:32;;;;;;;8.63;5.20;;;6.10;99.90;;;;;;5032369;28;20247;-52
2021/04/23 04:56:00;;;;;;;8.40;4.70;;;5.80;99.90;;;;;;5037190;28;20322;-53
2021/04/23 04:58:33;;;;;;;7.67;4.67;;;5.80;99.90;;;;;;5036307;28;20228;-53
2021/04/23 05:01:00;;;;;;;7.40;4.13;;;5.90;99.90;;;;;;5033995;28;20219;-52
2021/04/23 05:03:27;;;;;;;5.80;4.20;;;5.90;99.90;;;;;;5035626;28;20200;-52
2021/04/23 05:05:53;;;;;;;5.40;3.60;;;5.80;99.90;;;;;;5027452;28;20692;-53
2021/04/23 05:08:20;;;;;;;6.63;4.37;;;5.80;99.90;;;;;;5037185;28;20297;-52
2021/04/23 05:10:46;;;;;;;5.23;3.87;;;5.90;99.90;;;;;;5036544;28;20201;-52
2021/04/23 05:13:13;;;;;;;6.37;3.63;;;5.90;99.90;;;;;;5039586;28;20234;-52
2021/04/23 05:15:39;;;;;;;6.87;3.43;;;5.90;99.90;;;;;;5035211;28;20347;-52
2021/04/23 05:18:06;;;;;;;9.70;4.43;;;6.00;99.90;;;;;;5037468;28;20555;-52
2021/04/23 05:20:34;;;;;;;6.70;4.30;;;6.20;99.90;;;;;;5032557;28;20500;-52
2021/04/23 05:23:00;;;;;;;5.57;3.77;;;6.10;99.90;;;;;;5034367;28;20622;-52
2021/04/23 05:25:28;;;;;;;7.93;4.63;;;6.20;99.90;;;;;;5035679;28;20205;-52
2021/04/23 05:27:54;;;;;;;10.13;4.40;;;6.20;99.90;;;;;;5040777;28;20289;-52
2021/04/23 05:30:28;;;;;;;8.77;5.30;;;6.30;99.90;;;;;;5033801;28;20216;-52
2021/04/23 05:32:56;;;;;;;7.50;5.03;;;6.40;99.90;;;;;;5039667;28;20198;-54
2021/04/23 05:35:26;;;;;;;14.17;5.07;;;6.40;99.90;;;;;;5033165;28;20227;-52
2021/04/23 05:37:52;;;;;;;13.40;5.13;;;6.40;99.90;;;;;;5036643;28;20664;-52
2021/04/23 05:40:24;;;;;;;17.00;4.73;;;6.50;99.90;;;;;;5031467;28;20324;-52
2021/04/23 05:42:52;;;;;;;10.13;4.60;;;6.70;99.90;;;;;;5025926;28;20198;-53
2021/04/23 05:45:19;;;;;;;11.73;4.40;;;6.70;99.90;;;;;;5035816;28;20276;-52
2021/04/23 05:47:45;;;;;;;7.83;4.70;;;6.70;99.90;;;;;;5030058;28;20228;-52
2021/04/23 05:50:14;;;;;;;10.73;3.90;;;6.90;99.90;;;;;;5027330;28;20275;-52
2021/04/23 05:52:42;;;;;;;11.23;4.77;;;6.90;99.90;;;;;;5028046;28;20265;-52
2021/04/23 05:55:10;;;;;;;11.20;4.27;;;7.00;99.90;;;;;;5025733;28;20224;-52
2021/04/23 05:57:38;;;;;;;12.33;4.53;;;6.90;99.90;;;;;;5028332;28;20269;-52
2021/04/23 06:00:07;;;;;;;9.50;3.97;;;7.10;99.90;;;;;;5025800;28;20286;-52
2021/04/23 06:02:34;;;;;;;10.83;4.60;;;7.10;99.90;;;;;;5034109;28;20218;-52
2021/04/23 06:05:00;;;;;;;10.00;4.27;;;7.00;99.90;;;;;;5032155;28;20760;-52
2021/04/23 06:07:28;;;;;;;16.13;4.90;;;7.20;99.90;;;;;;5033566;28;20212;-52
2021/04/23 06:09:54;;;;;;;6.77;3.87;;;7.30;99.90;;;;;;5032990;28;20242;-52
2021/04/23 06:12:20;;;;;;;10.53;4.50;;;7.20;99.90;;;;;;5036543;28;20244;-52
2021/04/23 06:14:47;;;;;;;10.73;4.03;;;7.30;99.90;;;;;;5030830;28;20310;-52
2021/04/23 06:17:13;;;;;;;7.80;4.53;;;7.50;99.90;;;;;;5034402;28;20296;-53
2021/04/23 06:19:40;;;;;;;6.77;3.93;;;7.60;99.90;;;;;;5033005;28;20238;-52
2021/04/23 06:22:07;;;;;;;9.87;4.07;;;7.90;99.90;;;;;;5039101;28;20205;-53
2021/04/23 06:24:35;;;;;;;11.50;4.57;;;8.00;99.90;;;;;;5035930;28;20250;-52
2021/04/23 06:27:02;;;;;;;6.30;4.00;;;8.10;99.90;;;;;;5028375;28;20278;-52
2021/04/23 06:29:28;;;;;;;9.87;3.67;;;8.00;99.90;;;;;;5038340;28;20286;-54
2021/04/23 06:31:55;;;;;;;11.07;4.00;;;8.00;99.90;;;;;;5038878;28;20357;-52
2021/04/23 06:34:22;;;;;;;10.57;3.27;;;8.10;99.90;;;;;;5034519;28;20302;-52
2021/04/23 06:36:49;;;;;;;7.73;3.47;;;8.20;99.90;;;;;;5029706;28;20292;-53
2021/04/23 06:39:18;;;;;;;7.83;4.27;;;8.30;99.90;;;;;;5031396;28;20271;-52
2021/04/23 06:41:46;;;;;;;7.27;3.33;;;8.60;99.90;;;;;;5042166;28;20202;-52
2021/04/23 06:44:13;;;;;;;7.43;3.23;;;8.50;99.90;;;;;;5042826;28;20211;-52
2021/04/23 06:46:39;;;;;;;6.90;3.03;;;8.60;99.90;;;;;;5038046;28;20599;-52
2021/04/23 06:49:07;;;;;;;11.90;4.10;;;8.70;99.90;;;;;;5043058;28;20241;-52
2021/04/23 06:51:36;;;;;;;10.00;3.60;;;9.10;99.90;;;;;;5042056;28;20604;-52
2021/04/23 06:54:04;;;;;;;9.63;3.27;;;9.30;99.90;;;;;;5039464;28;20265;-52
2021/04/23 06:56:32;;;;;;;5.63;2.97;;;9.30;99.90;;;;;;5042118;28;20404;-52
2021/04/23 06:58:58;;;;;;;4.97;2.60;;;9.30;99.90;;;;;;5028579;28;20266;-53
2021/04/23 07:01:25;;;;;;;7.87;3.20;;;9.40;99.90;;;;;;5032802;28;20255;-51
2021/04/23 07:03:52;;;;;;;9.10;2.97;;;9.40;99.90;;;;;;5037321;28;20228;-52
2021/04/23 07:06:19;;;;;;;8.40;3.00;;;9.80;99.90;;;;;;5035226;28;20258;-52
2021/04/23 07:08:46;;;;;;;4.73;2.47;;;9.60;99.90;;;;;;5032960;28;20249;-52
2021/04/23 07:11:13;;;;;;;12.83;3.07;;;9.80;99.90;;;;;;5033822;28;20208;-52
2021/04/23 07:13:39;;;;;;;9.10;2.83;;;9.70;99.90;;;;;;5029168;28;20302;-51
2021/04/23 07:16:05;;;;;;;5.60;2.57;;;10.00;99.90;;;;;;5035669;28;20201;-54
2021/04/23 07:18:32;;;;;;;5.30;2.53;;;10.20;99.90;;;;;;5033750;28;20193;-52
2021/04/23 07:20:58;;;;;;;6.93;2.70;;;10.50;99.90;;;;;;5039894;28;20630;-53
2021/04/23 07:23:25;;;;;;;9.77;2.40;;;10.00;99.90;;;;;;5040562;28;20202;-53
2021/04/23 07:25:51;;;;;;;6.10;2.17;;;10.00;99.90;;;;;;5042390;28;20205;-52
2021/04/23 07:28:18;;;;;;;3.47;1.83;;;10.20;99.90;;;;;;5034904;28;20226;-52
2021/04/23 07:30:44;;;;;;;4.93;1.70;;;10.80;99.90;;;;;;5037172;28;20212;-52
2021/04/23 07:33:14;;;;;;;5.80;1.90;;;10.50;98.40;;;;;;5054747;28;20193;-52
2021/04/23 07:35:42;;;;;;;10.17;2.00;;;10.10;95.70;;;;;;5031755;28;20815;-52
2021/04/23 07:38:08;;;;;;;6.43;1.93;;;10.00;96.90;;;;;;5039277;28;20218;-52
2021/04/23 07:40:35;;;;;;;3.93;1.40;;;10.10;98.60;;;;;;5031678;28;20204;-52
2021/04/23 07:43:03;;;;;;;4.93;1.30;;;10.10;95.10;;;;;;5041515;28;20240;-52
2021/04/23 07:45:50;;;;;;;5.83;1.80;;;9.90;94.40;;;;;;5032547;28;20205;-52
2021/04/23 07:48:17;;;;;;;5.37;1.57;;;10.00;97.40;;;;;;5030166;28;20204;-52
2021/04/23 07:50:44;;;;;;;5.90;1.50;;;10.40;96.60;;;;;;5037145;28;20248;-52
2021/04/23 07:53:10;;;;;;;7.73;1.70;;;10.50;95.60;;;;;;5034302;28;20430;-52
2021/04/23 07:55:36;;;;;;;6.50;1.67;;;10.90;92.30;;;;;;5030737;28;20191;-53
2021/04/23 07:58:07;;;;;;;6.47;1.70;;;11.00;82.60;;;;;;5038811;28;20225;-52
2021/04/23 08:00:33;;;;;;;5.80;1.40;;;11.40;78.80;;;;;;5033721;28;20233;-52
2021/04/23 08:03:00;;;;;;;7.50;1.23;;;11.60;69.90;;;;;;5031619;28;20286;-52
2021/04/23 08:05:26;;;;;;;3.43;1.97;;;11.50;65.80;;;;;;5036067;28;20580;-52
2021/04/23 08:08:04;;;;;;;4.83;1.60;;;11.60;68.00;;;;;;5032523;28;20329;-52
2021/04/23 08:10:32;;;;;;;6.70;1.80;;;12.00;62.20;;;;;;5030434;28;20237;-52
2021/04/23 08:12:59;;;;;;;8.50;1.80;;;12.20;62.10;;;;;;5038320;28;20281;-52
2021/04/23 08:15:26;;;;;;;3.87;1.53;;;12.20;64.00;;;;;;5030789;28;20199;-52
2021/04/23 08:17:54;;;;;;;6.47;2.27;;;12.10;68.90;;;;;;5036565;28;20234;-52
2021/04/23 08:20:21;;;;;;;6.27;1.70;;;11.80;70.20;;;;;;5034840;28;20206;-52
2021/04/23 08:22:47;;;;;;;6.70;2.00;;;12.20;64.90;;;;;;5027567;28;20382;-52
2021/04/23 08:25:17;;;;;;;5.73;2.80;;;12.60;67.10;;;;;;5024437;28;20259;-52
2021/04/23 08:27:44;;;;;;;5.20;2.10;;;12.60;59.40;;;;;;5029672;28;20219;-52
2021/04/23 08:30:12;;;;;;;7.47;2.53;;;12.50;62.30;;;;;;5009612;28;20365;-52
2021/04/23 08:32:38;;;;;;;8.53;2.00;;;13.30;60.20;;;;;;5026603;28;20216;-52
2021/04/23 08:35:07;;;;;;;5.23;2.20;;;13.50;53.00;;;;;;5031203;28;20206;-52
2021/04/23 08:37:35;;;;;;;4.87;1.73;;;13.80;54.00;;;;;;5030063;28;20215;-52
2021/04/23 08:40:05;;;;;;;6.33;2.07;;;14.10;48.70;;;;;;5031060;28;20223;-52
2021/04/23 08:42:33;;;;;;;6.07;1.77;;;13.90;48.90;;;;;;5037759;28;20211;-52
2021/04/23 08:45:01;;;;;;;2.90;1.67;;;13.40;51.50;;;;;;5030010;28;20297;-52
2021/04/23 08:47:28;;;;;;;5.13;1.87;;;13.90;52.00;;;;;;5037306;28;20925;-52
2021/04/23 08:49:58;;;;;;;3.20;1.50;;;13.60;49.30;;;;;;5029116;28;20267;-52
2021/04/23 08:52:25;;;;;;;6.47;1.70;;;14.10;49.80;;;;;;5035303;28;20212;-53
2021/04/23 08:54:54;;;;;;;5.40;1.73;;;14.10;49.50;;;;;;5033574;28;20266;-53
2021/04/23 08:57:24;;;;;;;8.13;2.00;;;14.50;47.90;;;;;;5037295;28;20196;-53
2021/04/23 08:59:51;;;;;;;6.87;2.03;;;14.70;44.50;;;;;;5034571;28;20275;-53
2021/04/23 09:02:18;;;;;;;5.80;1.73;;;14.60;45.60;;;;;;5038930;28;20287;-53
2021/04/23 09:04:44;;;;;;;7.47;1.87;;;14.50;44.40;;;;;;5011883;28;20208;-53
2021/04/23 09:07:11;;;;;;;5.50;1.87;;;14.90;42.80;;;;;;5036908;28;20283;-53
2021/04/23 09:09:40;;;;;;;4.07;1.87;;;13.80;45.10;;;;;;5028828;28;20240;-53
2021/04/23 09:12:26;;;;;;;6.10;1.70;;;14.40;45.50;;;;;;5034022;28;20239;-53
2021/04/23 09:14:55;;;;;;;3.30;1.83;;;14.50;44.80;;;;;;5031133;28;20624;-53
2021/04/23 09:17:23;;;;;;;6.43;2.10;;;14.50;42.30;;;;;;5032897;28;20369;-53
2021/04/23 09:19:50;;;;;;;4.13;1.80;;;14.30;44.30;;;;;;5035961;28;20210;-53
2021/04/23 09:22:25;;;;;;;3.20;1.50;;;14.60;43.30;;;;;;5043148;28;20282;-53
2021/04/23 09:25:06;;;;;;;5.60;1.73;;;15.10;41.00;;;;;;5039552;28;20493;-53
2021/04/23 09:27:38;;;;;;;5.40;1.47;;;14.10;38.80;;;;;;5028483;28;20294;-53
2021/04/23 09:30:10;;;;;;;4.47;1.87;;;13.60;41.40;;;;;;5031594;28;20212;-53
2021/04/23 09:32:39;;;;;;;5.83;1.87;;;13.80;42.80;;;;;;5035584;28;20200;-52
2021/04/23 09:35:15;;;;;;;4.07;2.00;;;13.80;41.50;;;;;;5034090;28;20338;-53
2021/04/23 09:37:52;;;;;;;6.67;2.10;;;13.70;45.40;;;;;;5033136;28;20251;-53
2021/04/23 09:40:21;;;;;;;6.10;2.03;;;14.20;42.00;;;;;;5031256;28;20249;-53
2021/04/23 09:42:55;;;;;;;3.53;1.70;;;14.10;42.40;;;;;;5035240;28;20285;-53
2021/04/23 09:45:26;;;;;;;5.53;1.87;;;14.10;40.70;;;;;;5030514;28;20229;-53
2021/04/23 09:47:53;;;;;;;3.27;1.63;;;14.50;43.70;;;;;;5023714;28;20257;-53
2021/04/23 09:50:20;;;;;;;5.20;2.00;;;14.30;38.30;;;;;;5027327;28;20256;-53
2021/04/23 09:52:52;;;;;;;3.50;1.43;;;14.00;43.40;;;;;;5028198;28;20333;-53
2021/04/23 09:55:22;;;;;;;4.07;1.67;;;14.70;39.60;;;;;;5030114;28;20242;-53
2021/04/23 09:57:58;;;;;;;8.67;2.50;;;15.10;37.70;;;;;;5042506;28;20218;-53
2021/04/23 10:00:28;;;;;;;5.67;1.87;;;14.90;38.30;;;;;;5041226;28;20682;-53
2021/04/23 10:02:59;;;;;;;4.20;2.00;;;14.30;39.70;;;;;;5046360;28;20212;-53
2021/04/23 10:05:31;;;;;;;6.57;2.40;;;14.80;41.30;;;;;;5039657;28;20211;-53
2021/04/23 10:07:58;;;;;;;6.83;2.30;;;14.10;39.90;;;;;;5037358;28;20280;-53
2021/04/23 10:10:26;;;;;;;3.87;1.70;;;14.50;39.80;;;;;;5034834;28;20664;-53
2021/04/23 10:13:05;;;;;;;4.33;1.83;;;14.90;38.10;;;;;;5040116;28;20630;-53
2021/04/23 10:15:42;;;;;;;5.90;1.87;;;14.70;36.30;;;;;;5031956;28;20287;-52
2021/04/23 10:18:12;;;;;;;4.20;2.07;;;14.80;34.80;;;;;;5035656;28;20266;-52
2021/04/23 10:20:43;;;;;;;6.83;2.00;;;14.50;37.10;;;;;;5036772;28;20211;-53
2021/04/23 10:23:15;;;;;;;7.67;2.00;;;13.90;35.60;;;;;;5036123;28;20341;-53
2021/04/23 10:25:42;;;;;;;3.90;2.07;;;14.00;40.70;;;;;;5039607;28;20224;-52
2021/04/23 10:28:12;;;;;;;3.80;1.50;;;14.30;37.40;;;;;;5035987;28;20683;-53
2021/04/23 10:30:41;;;;;;;6.83;1.93;;;14.80;36.30;;;;;;5038354;28;20302;-53
2021/04/23 10:33:10;;;;;;;5.63;2.33;;;15.00;35.60;;;;;;5035343;28;20198;-53
2021/04/23 10:35:39;;;;;;;3.77;1.93;;;15.10;33.00;;;;;;5037697;28;20213;-52
2021/04/23 10:38:10;;;;;;;6.60;2.40;;;14.30;37.50;;;;;;5037988;28;20202;-53
2021/04/23 10:40:38;;;;;;;2.37;1.57;;;14.60;35.90;;;;;;5036051;28;20299;-53
2021/04/23 10:43:12;;;;;;;6.37;2.20;;;14.90;33.80;;;;;;5036285;28;20316;-53
2021/04/23 10:45:49;;;;;;;6.37;2.20;;;15.00;31.90;;;;;;5036024;28;20232;-52
2021/04/23 10:48:15;;;;;;;12.27;2.30;;;14.70;36.90;;;;;;5034750;28;20248;-53
2021/04/23 10:50:54;;;;;;;6.40;2.10;;;14.90;34.70;;;;;;5042620;28;20295;-53
2021/04/23 10:53:26;;;;;;;7.27;1.73;;;14.90;36.30;;;;;;5034114;28;20197;-53
2021/04/23 10:55:55;;;;;;;7.83;2.67;;;15.40;34.10;;;;;;5039837;28;20555;-53
2021/04/23 10:58:28;;;;;;;3.20;1.90;;;15.50;32.00;;;;;;5030300;28;20192;-53
2021/04/23 11:00:57;;;;;;;5.53;1.80;;;15.50;31.30;;;;;;5035005;28;20263;-53
2021/04/23 11:03:32;;;;;;;4.47;1.70;;;15.90;31.20;;;;;;5040539;28;20531;-53
2021/04/23 11:06:25;;;;;;;6.80;2.67;;;16.00;29.70;;;;;;5044502;28;20207;-53
2021/04/23 11:09:02;;;;;;;2.90;1.83;;;15.50;32.70;;;;;;5042989;28;20282;-53
2021/04/23 11:11:31;;;;;;;5.60;2.00;;;15.30;33.40;;;;;;5031619;28;20210;-53
2021/04/23 11:14:29;;;;;;;7.83;2.30;;;15.80;32.00;;;;;;5055458;28;20209;-53
2021/04/23 11:17:18;;;;;;;5.33;2.03;;;16.20;28.20;;;;;;5036540;28;20205;-53
2021/04/23 11:19:49;;;;;;;6.47;1.97;;;15.90;29.60;;;;;;5032441;28;20769;-53
2021/04/23 11:22:27;;;;;;;7.23;2.70;;;16.70;27.10;;;;;;5033357;28;20198;-54
2021/04/23 11:24:59;;;;;;;4.00;1.73;;;16.90;24.50;;;;;;5037707;28;20666;-53
2021/04/23 11:27:26;;;;;;;7.37;2.30;;;17.00;21.40;;;;;;5050933;28;20296;-53
2021/04/23 11:29:53;;;;;;;5.20;2.00;;;17.00;21.20;;;;;;5036206;28;20267;-54
2021/04/23 11:32:22;;;;;;;6.13;2.20;;;17.20;21.70;;;;;;5046287;28;20244;-53
2021/04/23 11:34:59;;;;;;;4.07;1.60;;;17.60;21.40;;;;;;5044316;28;20234;-53
2021/04/23 11:37:31;;;;;;;8.00;2.40;;;17.80;20.00;;;;;;5036834;28;20701;-53
2021/04/23 11:39:59;;;;;;;4.33;2.13;;;17.70;18.50;;;;;;5041595;28;20241;-53
2021/04/23 11:42:45;;;;;;;4.97;2.30;;;16.90;19.60;;;;;;5041579;28;20562;-54
2021/04/23 11:45:16;;;;;;;6.53;2.20;;;17.60;19.10;;;;;;5037362;28;20573;-53
2021/04/23 11:47:50;;;;;;;6.03;2.30;;;17.20;18.10;;;;;;5039673;28;20206;-53
2021/04/23 11:50:31;;;;;;;6.17;2.03;;;17.40;18.60;;;;;;5037774;28;20310;-53
2021/04/23 11:53:00;;;;;;;3.27;1.87;;;17.70;21.20;;;;;;5035110;28;20961;-53
2021/04/23 11:55:46;;;;;;;4.00;2.03;;;18.20;16.40;;;;;;5042682;28;21042;-53
2021/04/23 11:58:19;;;;;;;5.50;2.30;;;18.00;15.70;;;;;;5034639;28;20234;-53
2021/04/23 12:00:47;;;;;;;5.10;2.03;;;18.10;18.60;;;;;;5042559;28;20233;-53
2021/04/23 12:03:17;;;;;;;5.33;2.40;;;17.70;16.60;;;;;;5038744;28;20341;-53
2021/04/23 12:05:47;;;;;;;4.70;2.53;;;17.40;19.70;;;;;;5034382;28;20210;-53
2021/04/23 12:08:29;;;;;;;3.17;2.33;;;18.00;17.80;;;;;;5036478;28;20306;-53
2021/04/23 12:11:04;;;;;;;7.30;2.60;;;18.10;18.80;;;;;;5036033;28;20357;-53
2021/04/23 12:13:39;;;;;;;7.23;2.37;;;17.90;16.00;;;;;;5033223;28;20273;-53
2021/04/23 12:16:08;;;;;;;4.97;2.30;;;17.20;18.50;;;;;;5032375;28;20261;-53
2021/04/23 12:18:51;;;;;;;5.53;2.43;;;18.10;18.20;;;;;;5036190;28;20260;-53
2021/04/23 12:21:19;;;;;;;3.67;2.10;;;17.80;16.70;;;;;;5037770;28;20233;-53
2021/04/23 12:23:46;;;;;;;5.83;2.60;;;17.70;19.40;;;;;;5032861;28;20323;-53
2021/04/23 12:26:14;;;;;;;5.37;2.80;;;18.10;18.70;;;;;;5028489;28;20296;-53
2021/04/23 12:28:51;;;;;;;4.63;2.20;;;18.80;16.80;;;;;;5031752;28;20199;-53
2021/04/23 12:31:20;;;;;;;3.77;2.10;;;18.80;14.40;;;;;;5030643;28;20245;-53
2021/04/23 12:33:48;;;;;;;5.80;2.73;;;18.50;17.10;;;;;;5031872;28;20281;-54
2021/04/23 12:36:17;;;;;;;4.60;2.80;;;18.80;13.80;;;;;;5026719;28;20213;-53
2021/04/23 12:38:47;;;;;;;3.60;2.57;;;18.60;14.40;;;;;;5029640;28;20224;-53
2021/04/23 12:41:30;;;;;;;4.77;2.57;;;18.60;14.00;;;;;;5027756;28;20207;-53
2021/04/23 12:44:06;;;;;;;8.70;2.97;;;18.40;15.80;;;;;;5033354;28;20230;-53
2021/04/23 12:46:35;;;;;;;6.37;2.50;;;18.40;13.50;;;;;;5034054;28;20219;-53
2021/04/23 12:49:23;;;;;;;5.50;2.30;;;17.70;14.90;;;;;;5036442;28;20234;-53
2021/04/23 12:51:56;;;;;;;4.83;2.20;;;17.40;20.20;;;;;;5030093;28;20268;-53
2021/04/23 12:54:53;;;;;;;7.87;2.80;;;18.00;15.60;;;;;;5037486;28;20762;-53
2021/04/23 12:57:28;;;;;;;6.30;2.87;;;17.50;16.60;;;;;;5027440;28;20227;-53
2021/04/23 13:00:12;;;;;;;7.13;2.90;;;17.30;19.00;;;;;;5029361;28;20292;-53
2021/04/23 13:02:41;;;;;;;4.87;2.70;;;17.10;18.00;;;;;;5033476;28;20350;-53